Time;durP1;ratioP1;P1;durP2;ratioP2;P2;SDS_P1;SDS_P2;PMS_P1;PMS_P2;Temp;Humidity;BMP_temperature;BMP_pressure;BME280_temperature;BME280_humidity;BME280_pressure;Samples;Min_cycle;Max_cycle;Signal;HPM_P1;HPM_P2
2022/09/24 00:00:35;;;;;;;24.52;10.30;;;7.20;99.90;;;;;;5068550;28;20024;-52
2022/09/24 00:03:01;;;;;;;18.27;9.07;;;7.20;99.90;;;;;;5074161;28;20028;-51
2022/09/24 00:05:26;;;;;;;18.10;7.47;;;7.20;99.90;;;;;;5074553;28;20341;-54
2022/09/24 00:07:52;;;;;;;16.45;7.20;;;7.20;99.90;;;;;;5074296;28;20049;-54
2022/09/24 00:10:17;;;;;;;7.35;6.28;;;7.20;99.90;;;;;;5074478;28;20036;-52
2022/09/24 00:12:43;;;;;;;10.20;6.75;;;7.30;99.90;;;;;;5074365;28;20033;-52
2022/09/24 00:15:09;;;;;;;7.32;6.57;;;7.30;99.90;;;;;;5074224;28;20036;-52
2022/09/24 00:17:35;;;;;;;9.95;6.85;;;7.30;99.90;;;;;;5074597;28;20040;-54
2022/09/24 00:20:00;;;;;;;11.52;6.50;;;7.30;99.90;;;;;;5074341;28;20052;-52
2022/09/24 00:22:26;;;;;;;6.68;6.00;;;7.30;99.90;;;;;;5074471;28;20032;-51
2022/09/24 00:27:35;;;;;;;;;;;7.30;99.90;;;;;;5074655;28;20027;-52
2022/09/24 00:30:01;;;;;;;8.73;5.65;;;7.40;99.90;;;;;;5055140;28;19909;-53
2022/09/24 00:32:27;;;;;;;13.80;6.03;;;7.30;99.90;;;;;;5054195;28;20364;-54
2022/09/24 00:34:53;;;;;;;18.42;6.72;;;7.20;99.90;;;;;;5054012;28;20545;-52
2022/09/24 00:37:18;;;;;;;9.23;6.35;;;7.10;99.90;;;;;;5054154;28;20566;-52
2022/09/24 00:39:45;;;;;;;7.70;5.97;;;7.00;99.90;;;;;;5053848;28;20025;-52
2022/09/24 00:42:12;;;;;;;7.60;6.45;;;7.10;99.90;;;;;;5053918;28;20031;-54
2022/09/24 00:44:43;;;;;;;19.02;5.95;;;7.10;99.90;;;;;;5053875;28;20025;-51
2022/09/24 00:47:27;;;;;;;9.15;6.47;;;7.10;99.90;;;;;;5053984;28;20017;-51
2022/09/24 00:50:05;;;;;;;11.20;6.07;;;7.10;99.90;;;;;;5053764;28;20104;-51
2022/09/24 00:52:31;;;;;;;6.53;5.65;;;7.10;99.90;;;;;;5052393;28;20075;-52
2022/09/24 00:54:57;;;;;;;8.90;5.45;;;7.10;99.90;;;;;;5053609;28;20107;-52
2022/09/24 00:57:23;;;;;;;6.32;5.70;;;7.20;99.90;;;;;;5065956;28;20412;-51
2022/09/24 00:59:49;;;;;;;8.77;6.60;;;7.20;99.90;;;;;;5073510;28;20021;-53
2022/09/24 01:02:15;;;;;;;7.65;6.03;;;7.20;99.90;;;;;;5073672;28;20535;-50
2022/09/24 01:04:40;;;;;;;7.43;5.90;;;7.20;99.90;;;;;;5063933;28;20024;-52
2022/09/24 01:07:06;;;;;;;10.43;6.55;;;7.20;99.90;;;;;;5051977;28;20117;-51
2022/09/24 01:09:33;;;;;;;9.65;5.75;;;7.20;99.90;;;;;;5053497;28;20033;-51
2022/09/24 01:12:23;;;;;;;14.40;6.43;;;7.20;99.90;;;;;;5054105;28;20079;-52
2022/09/24 01:15:25;;;;;;;6.95;5.20;;;7.20;99.90;;;;;;5056251;28;20086;-51
2022/09/24 01:18:06;;;;;;;7.25;6.03;;;7.10;99.90;;;;;;5073336;28;20403;-53
2022/09/24 01:20:31;;;;;;;12.10;5.30;;;7.20;99.90;;;;;;5073327;28;20024;-52
2022/09/24 01:23:03;;;;;;;7.65;5.47;;;7.20;99.90;;;;;;5073014;28;20032;-51
2022/09/24 01:25:46;;;;;;;11.10;5.63;;;7.20;99.90;;;;;;5057809;28;20112;-51
2022/09/24 01:28:18;;;;;;;9.07;6.10;;;7.10;99.90;;;;;;5054357;28;20032;-50
2022/09/24 01:30:46;;;;;;;17.73;6.15;;;7.10;99.90;;;;;;5052901;28;20040;-52
2022/09/24 01:33:18;;;;;;;10.45;5.47;;;7.10;99.90;;;;;;5052898;28;20111;-52
2022/09/24 01:35:48;;;;;;;10.57;6.80;;;7.00;99.90;;;;;;5052903;28;20032;-51
2022/09/24 01:38:40;;;;;;;6.72;5.85;;;7.10;99.90;;;;;;5052939;28;20143;-51
2022/09/24 01:41:09;;;;;;;12.40;6.32;;;7.10;99.90;;;;;;5052789;28;20400;-53
2022/09/24 01:43:35;;;;;;;6.18;5.57;;;7.10;99.90;;;;;;5071611;28;20024;-52
2022/09/24 01:46:05;;;;;;;6.90;5.47;;;7.20;99.90;;;;;;5072713;28;20035;-51
2022/09/24 01:48:34;;;;;;;8.77;5.65;;;7.20;99.90;;;;;;5072798;28;20517;-51
2022/09/24 01:51:09;;;;;;;5.68;5.18;;;7.20;99.90;;;;;;5072679;28;20024;-50
2022/09/24 01:53:46;;;;;;;7.78;5.95;;;7.20;99.90;;;;;;5072552;28;20020;-53
2022/09/24 01:56:41;;;;;;;6.93;5.25;;;7.30;99.90;;;;;;5072290;28;20338;-50
2022/09/24 01:59:21;;;;;;;5.95;5.28;;;7.30;99.90;;;;;;5071263;28;20032;-56
2022/09/24 02:02:08;;;;;;;8.77;5.78;;;7.30;99.90;;;;;;5070674;28;20028;-51
2022/09/24 02:04:41;;;;;;;6.82;4.88;;;7.30;99.90;;;;;;5072381;28;20081;-52
2022/09/24 02:07:24;;;;;;;11.73;6.57;;;7.20;99.90;;;;;;5072296;28;20071;-51
2022/09/24 02:09:50;;;;;;;10.65;5.57;;;7.30;99.90;;;;;;5072175;28;20265;-51
2022/09/24 02:12:28;;;;;;;8.43;5.10;;;7.30;99.90;;;;;;5072282;28;20655;-50
2022/09/24 02:15:04;;;;;;;15.95;5.72;;;7.30;99.90;;;;;;5072026;28;20054;-51
2022/09/24 02:17:34;;;;;;;10.32;5.22;;;7.30;99.90;;;;;;5070515;28;20073;-50
2022/09/24 02:20:04;;;;;;;6.43;5.18;;;7.30;99.90;;;;;;5071907;28;20108;-50
2022/09/24 02:22:31;;;;;;;7.55;5.97;;;7.30;99.90;;;;;;5070937;28;20020;-50
2022/09/24 02:25:00;;;;;;;6.20;5.60;;;7.30;99.90;;;;;;5070138;28;20033;-51
2022/09/24 02:27:27;;;;;;;5.43;4.93;;;7.30;99.90;;;;;;5072105;28;20073;-51
2022/09/24 02:29:58;;;;;;;8.32;5.50;;;7.30;99.90;;;;;;5062216;28;20397;-50
2022/09/24 02:32:28;;;;;;;6.80;5.30;;;7.30;99.90;;;;;;5065471;28;20024;-51
2022/09/24 02:35:02;;;;;;;5.82;5.32;;;7.30;99.90;;;;;;5071783;28;20024;-51
2022/09/24 02:37:28;;;;;;;14.15;5.43;;;7.30;99.90;;;;;;5070415;28;20094;-51
2022/09/24 02:39:54;;;;;;;5.57;5.07;;;7.30;99.90;;;;;;5070149;28;20024;-51
2022/09/24 02:42:21;;;;;;;7.50;5.38;;;7.30;99.90;;;;;;5055852;28;20115;-51
2022/09/24 02:44:46;;;;;;;7.43;5.20;;;7.20;99.90;;;;;;5051763;28;20013;-52
2022/09/24 02:47:12;;;;;;;5.78;5.15;;;7.20;99.90;;;;;;5051849;28;20472;-51
2022/09/24 02:49:38;;;;;;;7.25;4.43;;;7.20;99.90;;;;;;5051652;28;20025;-53
2022/09/24 02:52:04;;;;;;;6.03;5.47;;;7.20;99.90;;;;;;5051781;28;20107;-53
2022/09/24 02:54:30;;;;;;;8.55;5.53;;;7.20;99.90;;;;;;5051848;28;20063;-52
2022/09/24 02:56:56;;;;;;;11.93;5.30;;;7.10;99.90;;;;;;5065899;28;20028;-52
2022/09/24 02:59:22;;;;;;;5.82;5.18;;;7.10;99.90;;;;;;5071454;28;20074;-51
2022/09/24 03:01:48;;;;;;;9.20;5.82;;;7.10;99.90;;;;;;5071466;28;20024;-52
2022/09/24 03:04:15;;;;;;;6.10;4.93;;;7.10;99.90;;;;;;5071674;28;20021;-51
2022/09/24 03:06:41;;;;;;;5.38;4.88;;;7.10;99.90;;;;;;5071323;28;20123;-54
2022/09/24 03:09:10;;;;;;;8.65;4.88;;;7.10;99.90;;;;;;5064305;28;20028;-51
2022/09/24 03:11:36;;;;;;;5.18;4.75;;;7.10;99.90;;;;;;5051499;28;20108;-55
2022/09/24 03:14:01;;;;;;;6.68;4.85;;;7.10;99.90;;;;;;5051388;28;20429;-53
2022/09/24 03:16:27;;;;;;;8.93;4.82;;;7.10;99.90;;;;;;5051384;28;20468;-51
2022/09/24 03:18:53;;;;;;;7.93;4.82;;;7.00;99.90;;;;;;5051365;28;20056;-53
2022/09/24 03:21:21;;;;;;;17.10;5.10;;;7.10;99.90;;;;;;5052458;28;20094;-51
2022/09/24 03:23:47;;;;;;;15.93;6.00;;;7.00;99.90;;;;;;5051354;28;20078;-53
2022/09/24 03:26:13;;;;;;;13.50;5.45;;;7.00;99.90;;;;;;5051572;28;20025;-51
2022/09/24 03:28:39;;;;;;;10.55;5.38;;;7.00;99.90;;;;;;5051312;28;20025;-51
2022/09/24 03:31:06;;;;;;;15.57;5.25;;;6.90;99.90;;;;;;5051319;28;20029;-50
2022/09/24 03:33:42;;;;;;;6.70;5.20;;;6.90;99.90;;;;;;5051287;28;20036;-51
2022/09/24 03:36:18;;;;;;;7.28;5.05;;;6.90;99.90;;;;;;5061212;28;20024;-51
2022/09/24 03:38:45;;;;;;;6.70;6.05;;;6.90;99.90;;;;;;5075335;28;20031;-54
2022/09/24 03:41:11;;;;;;;15.25;5.47;;;6.90;99.90;;;;;;5075306;28;20020;-51
2022/09/24 03:43:37;;;;;;;11.43;5.60;;;6.90;99.90;;;;;;5075185;28;20472;-54
2022/09/24 03:46:05;;;;;;;18.33;5.90;;;6.90;99.90;;;;;;5075231;28;20036;-51
2022/09/24 03:48:36;;;;;;;11.55;5.78;;;6.90;99.90;;;;;;5075350;28;20025;-52
2022/09/24 03:51:04;;;;;;;11.40;6.15;;;6.80;99.90;;;;;;5065897;28;20032;-53
2022/09/24 03:53:31;;;;;;;24.23;6.72;;;6.80;99.90;;;;;;5055001;28;20028;-51
2022/09/24 03:55:58;;;;;;;16.00;6.28;;;6.80;99.90;;;;;;5054993;28;20115;-52
2022/09/24 03:58:24;;;;;;;8.68;6.75;;;6.80;99.90;;;;;;5055161;28;20071;-53
2022/09/24 04:00:53;;;;;;;24.73;8.50;;;6.80;99.90;;;;;;5054808;28;20029;-50
2022/09/24 04:03:20;;;;;;;7.55;6.85;;;6.80;99.90;;;;;;5057401;28;20044;-52
2022/09/24 04:05:47;;;;;;;10.75;7.57;;;6.80;99.90;;;;;;5074443;28;20022;-52
2022/09/24 04:08:12;;;;;;;15.95;7.15;;;6.80;99.90;;;;;;5074621;28;20048;-51
2022/09/24 04:10:38;;;;;;;17.92;9.18;;;6.80;99.90;;;;;;5073359;28;20446;-51
2022/09/24 04:13:04;;;;;;;15.63;8.68;;;6.80;99.90;;;;;;5074655;28;20111;-52
2022/09/24 04:15:32;;;;;;;21.55;8.27;;;6.80;99.90;;;;;;5074663;28;20046;-51
2022/09/24 04:17:58;;;;;;;19.65;8.63;;;6.80;99.90;;;;;;5074417;28;20026;-52
2022/09/24 04:20:26;;;;;;;14.77;8.10;;;6.70;99.90;;;;;;5074401;28;20131;-52
2022/09/24 04:22:57;;;;;;;13.15;10.10;;;6.70;99.90;;;;;;5074362;28;20032;-53
2022/09/24 04:25:24;;;;;;;13.77;10.20;;;6.70;99.90;;;;;;5074491;28;20020;-52
2022/09/24 04:27:55;;;;;;;11.52;9.63;;;6.70;99.90;;;;;;5073190;28;20422;-53
2022/09/24 04:30:22;;;;;;;15.75;10.63;;;6.60;99.90;;;;;;5074444;28;20507;-52
2022/09/24 04:32:50;;;;;;;14.05;10.40;;;6.60;99.90;;;;;;5071249;28;20028;-51
2022/09/24 04:35:17;;;;;;;19.08;10.85;;;6.60;99.90;;;;;;5053026;28;20380;-53
2022/09/24 04:37:44;;;;;;;13.82;10.30;;;6.60;99.90;;;;;;5054072;28;20443;-52
2022/09/24 04:40:11;;;;;;;22.42;10.07;;;6.50;99.90;;;;;;5054174;28;20515;-52
2022/09/24 04:42:38;;;;;;;17.90;12.00;;;6.60;99.90;;;;;;5052873;28;20039;-52
2022/09/24 04:45:06;;;;;;;22.75;10.60;;;6.50;99.90;;;;;;5052945;28;20423;-54
2022/09/24 04:47:31;;;;;;;22.83;10.63;;;6.50;99.90;;;;;;5053492;28;20025;-51
2022/09/24 04:50:00;;;;;;;32.38;10.55;;;6.60;99.90;;;;;;5053299;28;20717;-53
2022/09/24 04:52:28;;;;;;;20.05;8.52;;;6.50;99.90;;;;;;5053022;28;20380;-52
2022/09/24 04:54:56;;;;;;;19.92;9.48;;;6.50;99.90;;;;;;5053038;28;20384;-51
2022/09/24 04:57:22;;;;;;;12.77;9.88;;;6.50;99.90;;;;;;5053533;28;20404;-53
2022/09/24 04:59:48;;;;;;;16.02;10.48;;;6.50;99.90;;;;;;5052851;28;20021;-52
2022/09/24 05:02:15;;;;;;;11.20;8.40;;;6.60;99.90;;;;;;5054502;28;20037;-54
2022/09/24 05:04:40;;;;;;;13.95;9.90;;;6.60;99.90;;;;;;5072846;28;20024;-51
2022/09/24 05:07:06;;;;;;;33.13;10.93;;;6.60;99.90;;;;;;5073543;28;20056;-52
2022/09/24 05:09:31;;;;;;;30.05;10.68;;;6.60;99.90;;;;;;5073480;28;20472;-52
2022/09/24 05:11:58;;;;;;;35.45;12.27;;;6.60;99.90;;;;;;5073464;28;20035;-52
2022/09/24 05:14:24;;;;;;;16.70;10.20;;;6.60;99.90;;;;;;5073197;28;20028;-52
2022/09/24 05:16:50;;;;;;;22.52;9.32;;;6.60;99.90;;;;;;5072683;28;20388;-54
2022/09/24 05:19:16;;;;;;;30.90;10.25;;;6.60;99.90;;;;;;5073498;28;20024;-53
2022/09/24 05:21:42;;;;;;;17.92;10.68;;;6.70;99.90;;;;;;5073430;28;20016;-53
2022/09/24 05:24:07;;;;;;;33.75;10.63;;;6.60;99.90;;;;;;5073518;28;20037;-52
2022/09/24 05:29:17;;;;;;;21.00;9.95;;;6.60;99.90;;;;;;5073477;28;20434;-52
2022/09/24 05:31:43;;;;;;;36.53;10.73;;;6.70;99.90;;;;;;5070865;28;20028;-55
2022/09/24 05:34:09;;;;;;;45.20;12.90;;;6.70;99.90;;;;;;5053026;28;20044;-51
2022/09/24 05:36:35;;;;;;;41.78;12.25;;;6.80;99.90;;;;;;5051688;28;20570;-53
2022/09/24 05:39:01;;;;;;;29.75;10.50;;;6.80;99.90;;;;;;5052660;28;20020;-51
2022/09/24 05:41:26;;;;;;;40.08;13.43;;;6.80;99.90;;;;;;5052249;28;20480;-51
2022/09/24 05:43:52;;;;;;;33.65;12.82;;;6.90;99.90;;;;;;5051765;28;20029;-52
2022/09/24 05:46:18;;;;;;;21.10;12.30;;;7.00;99.90;;;;;;5051863;28;20020;-52
2022/09/24 05:48:43;;;;;;;18.33;11.65;;;7.10;99.90;;;;;;5071102;28;20109;-51
2022/09/24 05:51:09;;;;;;;27.80;14.18;;;7.10;99.90;;;;;;5071717;28;20387;-52
2022/09/24 05:53:35;;;;;;;48.55;20.90;;;7.30;99.90;;;;;;5071509;28;20028;-51
2022/09/24 05:56:00;;;;;;;44.55;19.40;;;7.50;99.90;;;;;;5071497;28;20386;-53
2022/09/24 05:58:26;;;;;;;42.70;15.52;;;7.50;99.90;;;;;;5059968;28;20036;-51
2022/09/24 06:00:52;;;;;;;38.60;13.98;;;7.60;99.90;;;;;;5049500;28;20025;-51
2022/09/24 06:03:19;;;;;;;41.92;16.50;;;7.60;99.90;;;;;;5050251;28;20032;-51
2022/09/24 06:05:47;;;;;;;38.70;14.98;;;7.60;99.90;;;;;;5049810;28;20029;-51
2022/09/24 06:08:14;;;;;;;26.52;14.52;;;7.70;99.90;;;;;;5051109;28;20102;-51
2022/09/24 06:10:41;;;;;;;26.88;15.77;;;7.80;99.90;;;;;;5051224;28;20025;-51
2022/09/24 06:13:10;;;;;;;27.45;15.15;;;7.90;99.90;;;;;;5051299;28;20160;-51
2022/09/24 06:15:41;;;;;;;34.72;13.57;;;7.90;99.90;;;;;;5051121;28;20025;-54
2022/09/24 06:18:07;;;;;;;30.88;14.25;;;8.00;99.90;;;;;;5051185;28;20027;-54
2022/09/24 06:20:33;;;;;;;24.05;12.15;;;8.20;99.90;;;;;;5053455;28;20033;-51
2022/09/24 06:22:58;;;;;;;66.90;13.95;;;8.40;99.90;;;;;;5067393;28;20025;-51
2022/09/24 06:25:25;;;;;;;60.45;14.80;;;8.60;99.90;;;;;;5067825;28;20025;-51
2022/09/24 06:27:59;;;;;;;23.15;13.57;;;8.80;99.90;;;;;;5049670;28;20043;-52
2022/09/24 06:30:37;;;;;;;28.75;13.27;;;9.10;99.90;;;;;;5050863;28;20021;-52
2022/09/24 06:33:08;;;;;;;21.08;13.25;;;9.40;99.90;;;;;;5050911;28;20591;-51
2022/09/24 06:35:36;;;;;;;24.00;13.10;;;9.60;99.90;;;;;;5051223;28;20453;-52
2022/09/24 06:38:05;;;;;;;35.03;11.02;;;9.80;99.90;;;;;;5058599;28;20013;-52
2022/09/24 06:40:31;;;;;;;19.77;10.80;;;9.90;99.90;;;;;;5071929;28;20605;-51
2022/09/24 06:42:57;;;;;;;25.23;11.07;;;10.00;99.90;;;;;;5071858;28;20468;-53
2022/09/24 06:45:24;;;;;;;22.23;11.05;;;10.00;99.90;;;;;;5071933;28;20082;-52
2022/09/24 06:47:58;;;;;;;30.88;11.32;;;10.00;99.90;;;;;;5059895;28;20021;-52
2022/09/24 06:50:26;;;;;;;39.67;15.52;;;10.10;99.90;;;;;;5089652;28;20024;-52
2022/09/24 06:52:52;;;;;;;25.02;10.23;;;10.00;99.90;;;;;;5078559;28;20081;-51
2022/09/24 06:55:18;;;;;;;21.88;10.90;;;9.90;99.90;;;;;;5092197;28;20012;-53
2022/09/24 06:57:44;;;;;;;21.65;12.23;;;9.90;99.90;;;;;;5091989;28;20038;-52
2022/09/24 07:00:12;;;;;;;22.58;10.55;;;9.80;99.90;;;;;;5091892;28;20016;-53
2022/09/24 07:02:38;;;;;;;12.45;9.27;;;9.80;99.90;;;;;;5077274;28;20115;-53
2022/09/24 07:05:05;;;;;;;30.80;11.27;;;9.90;99.90;;;;;;5059880;28;20044;-52
2022/09/24 07:07:33;;;;;;;20.17;9.05;;;10.10;99.90;;;;;;5051217;28;20079;-51
2022/09/24 07:10:05;;;;;;;15.63;9.23;;;10.30;99.90;;;;;;5050977;28;20033;-52
2022/09/24 07:12:32;;;;;;;14.48;8.82;;;10.50;99.90;;;;;;5051421;28;20484;-51
2022/09/24 07:14:59;;;;;;;12.07;7.93;;;10.80;99.90;;;;;;5051296;28;20423;-54
2022/09/24 07:17:25;;;;;;;27.73;9.07;;;11.00;99.90;;;;;;5051525;28;20662;-51
2022/09/24 07:19:51;;;;;;;27.92;8.27;;;11.30;99.90;;;;;;5051196;28;20029;-52
2022/09/24 07:22:17;;;;;;;11.05;8.13;;;11.40;99.90;;;;;;5051251;28;20053;-52
2022/09/24 07:24:43;;;;;;;13.75;8.57;;;11.40;99.90;;;;;;5050099;28;20032;-54
2022/09/24 07:27:09;;;;;;;22.15;9.50;;;11.60;99.90;;;;;;5051260;28;20406;-52
2022/09/24 07:29:35;;;;;;;18.77;9.23;;;11.80;99.90;;;;;;5051313;28;20526;-53
2022/09/24 07:32:02;;;;;;;15.13;8.25;;;12.10;99.90;;;;;;5051088;28;20029;-52
2022/09/24 07:34:28;;;;;;;17.55;7.85;;;12.30;99.90;;;;;;5049683;28;20021;-52
2022/09/24 07:36:54;;;;;;;24.05;8.48;;;12.60;99.90;;;;;;5051921;28;20025;-53
2022/09/24 07:39:21;;;;;;;16.10;7.97;;;12.60;99.90;;;;;;5061087;28;20063;-53
2022/09/24 07:41:46;;;;;;;9.45;8.23;;;12.70;99.90;;;;;;5051177;28;20443;-51
2022/09/24 07:44:12;;;;;;;23.48;8.98;;;12.70;99.90;;;;;;5067940;28;20103;-52
2022/09/24 07:46:38;;;;;;;16.67;8.43;;;12.70;99.90;;;;;;5071206;28;20074;-54
2022/09/24 07:49:04;;;;;;;13.23;8.40;;;12.80;99.90;;;;;;5071141;28;20111;-52
2022/09/24 07:51:29;;;;;;;15.23;7.60;;;12.70;99.90;;;;;;5071417;28;20129;-52
2022/09/24 07:53:56;;;;;;;9.48;8.38;;;12.70;99.90;;;;;;5072796;28;20028;-55
2022/09/24 07:56:23;;;;;;;29.38;8.98;;;12.70;99.90;;;;;;5071067;28;20023;-53
2022/09/24 07:58:50;;;;;;;15.93;8.13;;;12.70;99.90;;;;;;5069641;28;20624;-53
2022/09/24 08:01:17;;;;;;;15.45;8.65;;;12.80;99.90;;;;;;5071180;28;20107;-54
2022/09/24 08:03:45;;;;;;;13.40;8.32;;;12.90;99.90;;;;;;5070859;28;20657;-52
2022/09/24 08:06:11;;;;;;;16.48;9.63;;;12.90;99.90;;;;;;5070882;28;20082;-51
2022/09/24 08:08:37;;;;;;;17.08;9.00;;;13.30;99.90;;;;;;5070769;28;20056;-54
2022/09/24 08:11:08;;;;;;;20.95;7.90;;;13.70;99.90;;;;;;5070928;28;20016;-52
2022/09/24 08:13:34;;;;;;;13.95;8.15;;;14.00;99.90;;;;;;5070719;28;20024;-53
2022/09/24 08:16:01;;;;;;;12.38;7.50;;;14.30;99.90;;;;;;5070927;28;20027;-53
2022/09/24 08:18:28;;;;;;;25.63;7.68;;;14.40;99.90;;;;;;5070864;28;20025;-53
2022/09/24 08:20:54;;;;;;;17.60;7.72;;;14.30;99.90;;;;;;5070832;28;20095;-52
2022/09/24 08:23:19;;;;;;;22.80;8.60;;;14.30;99.90;;;;;;5073173;28;20116;-51
2022/09/24 08:25:48;;;;;;;21.10;8.18;;;14.30;99.90;;;;;;5074369;28;20016;-52
2022/09/24 08:28:15;;;;;;;36.13;19.65;;;14.30;99.90;;;;;;5074458;28;20020;-53
2022/09/24 08:30:42;;;;;;;125.32;91.00;;;14.30;99.90;;;;;;5065370;28;20055;-52
2022/09/24 08:33:09;;;;;;;40.35;12.63;;;14.30;99.90;;;;;;5056666;28;20116;-54
2022/09/24 08:35:35;;;;;;;65.25;8.93;;;14.40;99.90;;;;;;5073974;28;20033;-55
2022/09/24 08:38:02;;;;;;;21.90;7.00;;;14.40;99.90;;;;;;5073782;28;20127;-52
2022/09/24 08:40:38;;;;;;;18.73;7.00;;;14.20;99.90;;;;;;5057181;28;20505;-52
2022/09/24 08:43:09;;;;;;;16.13;7.20;;;14.30;99.90;;;;;;5053983;28;20035;-51
2022/09/24 08:48:48;;;;;;;20.45;8.32;;;14.20;99.90;;;;;;5054411;28;20557;-52
2022/09/24 08:51:17;;;;;;;34.05;9.57;;;14.30;99.90;;;;;;5064591;28;20074;-53
2022/09/24 08:53:49;;;;;;;13.48;7.65;;;14.30;99.90;;;;;;5073296;28;20029;-53
2022/09/24 08:56:20;;;;;;;29.80;8.15;;;14.40;99.90;;;;;;5064228;28;20517;-55
2022/09/24 08:58:57;;;;;;;16.02;7.72;;;14.60;99.90;;;;;;5054755;28;20029;-50
2022/09/24 09:01:26;;;;;;;15.77;9.88;;;14.70;99.90;;;;;;5053414;28;20029;-51
2022/09/24 09:04:10;;;;;;;37.00;7.13;;;14.70;99.90;;;;;;5056733;28;20078;-53
2022/09/24 09:06:42;;;;;;;18.13;6.38;;;14.90;99.90;;;;;;5073490;28;20031;-52
2022/09/24 09:09:24;;;;;;;46.88;7.60;;;14.70;99.90;;;;;;5073285;28;20041;-52
2022/09/24 09:12:03;;;;;;;12.38;5.53;;;14.80;99.90;;;;;;5073415;28;20024;-54
2022/09/24 09:14:37;;;;;;;25.92;6.03;;;14.90;99.90;;;;;;5068094;28;20029;-51
2022/09/24 09:17:34;;;;;;;16.63;5.57;;;15.20;99.90;;;;;;5053401;28;20021;-52
2022/09/24 09:20:04;;;;;;;9.73;6.07;;;15.00;99.90;;;;;;5065432;28;20021;-52
2022/09/24 09:22:38;;;;;;;18.35;6.00;;;15.00;99.90;;;;;;5053487;28;20025;-50
2022/09/24 09:25:19;;;;;;;15.07;5.97;;;15.30;99.90;;;;;;5058918;28;20036;-53
2022/09/24 09:27:49;;;;;;;13.35;6.63;;;15.40;99.90;;;;;;5053366;28;20143;-54
2022/09/24 09:30:18;;;;;;;14.18;5.75;;;15.80;99.90;;;;;;5053220;28;20112;-51
2022/09/24 09:33:18;;;;;;;41.33;10.40;;;16.00;99.90;;;;;;5051547;28;20021;-52
2022/09/24 09:35:44;;;;;;;15.45;7.47;;;16.10;99.90;;;;;;5073335;28;20024;-52
2022/09/24 09:38:22;;;;;;;15.23;5.30;;;16.60;99.90;;;;;;5067180;28;20025;-51
2022/09/24 09:41:12;;;;;;;19.25;6.70;;;16.80;99.90;;;;;;5068421;28;20348;-53
2022/09/24 09:43:40;;;;;;;25.35;8.38;;;17.00;99.90;;;;;;5055082;28;20068;-52
2022/09/24 09:46:24;;;;;;;53.17;7.45;;;17.10;99.90;;;;;;5052532;28;20048;-53
2022/09/24 09:48:57;;;;;;;38.75;6.90;;;16.80;99.90;;;;;;5052807;28;20349;-51
2022/09/24 09:51:29;;;;;;;8.13;5.32;;;16.80;99.90;;;;;;5052758;28;20021;-52
2022/09/24 09:54:02;;;;;;;13.18;6.60;;;16.60;99.90;;;;;;5057548;28;20135;-53
2022/09/24 09:56:35;;;;;;;9.68;6.30;;;16.80;99.90;;;;;;5070614;28;20025;-51
2022/09/24 09:59:06;;;;;;;8.00;6.32;;;16.60;99.90;;;;;;5071358;28;20017;-51
2022/09/24 10:01:34;;;;;;;11.57;5.85;;;16.30;99.90;;;;;;5070577;28;20052;-51
2022/09/24 10:04:03;;;;;;;10.13;5.93;;;16.30;99.90;;;;;;5071952;28;20029;-52
2022/09/24 10:06:34;;;;;;;22.02;7.00;;;16.40;99.90;;;;;;5072108;28;20055;-52
2022/09/24 10:09:18;;;;;;;17.02;7.13;;;16.20;99.90;;;;;;5072024;28;20111;-51
2022/09/24 10:11:45;;;;;;;10.40;6.55;;;16.20;99.90;;;;;;5054036;28;20024;-51
2022/09/24 10:14:17;;;;;;;15.02;6.68;;;16.20;99.90;;;;;;5071262;28;20027;-50
2022/09/24 10:16:46;;;;;;;7.40;6.63;;;16.20;99.90;;;;;;5070092;28;20487;-51
2022/09/24 10:19:22;;;;;;;9.65;6.53;;;16.30;99.90;;;;;;5069693;28;20031;-49
2022/09/24 10:21:48;;;;;;;8.85;6.53;;;16.10;99.90;;;;;;5070993;28;20386;-52
2022/09/24 10:24:20;;;;;;;19.10;6.93;;;16.00;99.90;;;;;;5058346;28;20115;-53
2022/09/24 10:26:47;;;;;;;14.70;6.28;;;16.10;99.90;;;;;;5051108;28;20468;-52
2022/09/24 10:32:14;;;;;;;15.38;6.40;;;16.40;99.90;;;;;;5055887;28;20102;-51
2022/09/24 10:34:40;;;;;;;49.85;9.70;;;16.10;99.90;;;;;;5071482;28;20028;-50
2022/09/24 10:37:14;;;;;;;15.50;6.72;;;16.20;99.90;;;;;;5071264;28;20023;-52
2022/09/24 10:39:41;;;;;;;18.15;7.38;;;16.00;99.90;;;;;;5071277;28;20078;-49
2022/09/24 10:42:24;;;;;;;17.98;6.88;;;16.00;99.90;;;;;;5071574;28;20016;-51
2022/09/24 10:44:50;;;;;;;25.50;7.60;;;16.20;99.90;;;;;;5071314;28;20015;-50
2022/09/24 10:47:26;;;;;;;11.40;6.88;;;16.20;99.90;;;;;;5064016;28;20100;-51
2022/09/24 10:50:10;;;;;;;56.63;8.10;;;16.10;99.90;;;;;;5051363;28;20035;-49
2022/09/24 10:52:59;;;;;;;37.35;7.68;;;16.40;99.90;;;;;;5026721;28;20082;-56
2022/09/24 10:55:56;;;;;;;18.23;7.03;;;16.70;99.90;;;;;;5029791;28;20037;-53
2022/09/24 10:58:44;;;;;;;12.07;6.75;;;16.90;99.90;;;;;;5031579;28;20021;-50
2022/09/24 11:01:43;;;;;;;31.45;7.22;;;16.60;99.90;;;;;;5039892;28;20029;-53
2022/09/24 11:04:19;;;;;;;16.75;6.60;;;16.50;99.90;;;;;;5036553;28;20443;-51
2022/09/24 11:07:13;;;;;;;21.60;7.55;;;16.50;99.90;;;;;;5058684;28;20512;-54
2022/09/24 11:10:00;;;;;;;;;;;16.70;99.90;;;;;;5042257;28;20064;-53
2022/09/24 11:12:41;;;;;;;22.75;6.18;;;16.70;99.90;;;;;;5046775;28;19916;-55
2022/09/24 11:15:19;;;;;;;24.17;8.60;;;16.90;99.90;;;;;;5039792;28;20167;-51
2022/09/24 11:17:55;;;;;;;16.98;5.68;;;17.30;99.90;;;;;;5040747;28;20047;-54
2022/09/24 11:20:38;;;;;;;12.77;5.88;;;17.50;99.90;;;;;;5039138;28;20048;-51
2022/09/24 11:23:18;;;;;;;16.45;7.30;;;17.50;99.90;;;;;;5041968;28;20068;-53
2022/09/24 11:25:59;;;;;;;27.27;6.90;;;17.40;99.90;;;;;;5041538;28;20025;-51
2022/09/24 11:28:48;;;;;;;15.95;6.50;;;17.70;99.90;;;;;;5041275;28;20037;-52
2022/09/24 11:31:23;;;;;;;31.80;7.75;;;17.60;99.90;;;;;;5041030;28;20025;-50
2022/09/24 11:34:10;;;;;;;56.45;8.77;;;17.90;99.90;;;;;;5040275;28;20086;-54
2022/09/24 11:37:15;;;;;;;9.43;6.10;;;18.30;99.90;;;;;;5040404;28;20091;-53
2022/09/24 11:40:03;;;;;;;40.03;7.60;;;18.30;99.90;;;;;;5040620;28;20041;-50
2022/09/24 11:42:44;;;;;;;24.73;7.18;;;18.30;99.90;;;;;;5040122;28;20010;-52
2022/09/24 11:46:04;;;;;;;7.47;6.70;;;18.60;99.70;;;;;;5040227;28;20036;-52
2022/09/24 11:49:20;;;;;;;24.02;7.07;;;18.40;99.20;;;;;;5040034;28;20048;-52
2022/09/24 11:52:01;;;;;;;26.98;6.57;;;18.60;99.10;;;;;;5045947;28;20040;-54
2022/09/24 11:54:40;;;;;;;17.90;7.47;;;18.70;98.60;;;;;;5046128;28;20033;-53
2022/09/24 11:57:27;;;;;;;12.23;6.13;;;18.60;98.60;;;;;;5039641;28;20033;-52
2022/09/24 11:59:52;;;;;;;24.42;7.55;;;18.80;98.50;;;;;;5044259;28;20039;-50
2022/09/24 12:02:31;;;;;;;8.55;6.60;;;19.10;98.70;;;;;;5044722;28;20037;-52
2022/09/24 12:08:48;;;;;;;30.70;8.60;;;19.70;97.10;;;;;;5043396;28;20059;-53
2022/09/24 12:11:32;;;;;;;17.83;7.38;;;19.30;97.20;;;;;;5057273;28;20055;-52
2022/09/24 12:14:06;;;;;;;;;;;19.00;97.80;;;;;;5057167;28;20456;-52
2022/09/24 12:16:39;;;;;;;10.95;6.35;;;19.00;98.20;;;;;;5044842;28;19931;-52
2022/09/24 12:19:13;;;;;;;15.05;7.38;;;19.00;98.20;;;;;;5043356;28;20481;-50
2022/09/24 12:21:42;;;;;;;12.98;7.07;;;19.00;98.40;;;;;;5044148;28;20103;-51
2022/09/24 12:24:19;;;;;;;11.35;5.93;;;19.00;98.90;;;;;;5043770;28;20601;-52
2022/09/24 12:26:48;;;;;;;9.32;7.10;;;19.10;98.50;;;;;;5043088;28;20044;-52
2022/09/24 12:35:22;;;;;;;9.98;7.57;;;18.30;98.30;;;;;;5043562;28;20047;-50
2022/09/24 12:37:55;;;;;;;6.53;5.93;;;18.40;99.10;;;;;;5043238;28;20029;-52
2022/09/24 12:40:40;;;;;;;10.38;7.07;;;18.40;98.60;;;;;;5043220;28;20036;-52
2022/09/24 12:43:53;;;;;;;9.98;7.00;;;18.50;98.80;;;;;;5056400;28;20099;-50
2022/09/24 12:46:41;;;;;;;9.05;6.18;;;18.50;98.60;;;;;;5041311;28;20049;-54
2022/09/24 12:49:16;;;;;;;9.48;6.57;;;18.80;98.10;;;;;;5046589;28;20392;-54
2022/09/24 12:51:42;;;;;;;15.00;6.68;;;19.00;98.40;;;;;;5043525;28;20059;-50
2022/09/24 12:54:33;;;;;;;13.38;6.50;;;19.00;98.80;;;;;;5043706;28;20068;-51
2022/09/24 12:57:05;;;;;;;16.05;6.80;;;19.00;98.40;;;;;;5044589;28;20043;-53
2022/09/24 12:59:30;;;;;;;18.48;8.38;;;18.40;98.30;;;;;;5041630;28;20029;-53
2022/09/24 13:02:17;;;;;;;11.90;6.47;;;18.30;99.60;;;;;;5043430;28;20075;-53
2022/09/24 13:04:49;;;;;;;9.55;6.70;;;18.30;99.80;;;;;;5044893;28;20021;-52
2022/09/24 13:07:34;;;;;;;9.18;6.75;;;18.50;99.90;;;;;;5040763;28;20049;-52
2022/09/24 13:10:15;;;;;;;10.57;6.60;;;18.60;99.90;;;;;;5041951;28;20025;-54
2022/09/24 13:12:41;;;;;;;8.15;6.20;;;18.70;99.10;;;;;;5042299;28;20025;-54
2022/09/24 13:15:21;;;;;;;13.35;7.18;;;18.90;99.00;;;;;;5042831;28;20363;-52
2022/09/24 13:17:46;;;;;;;16.95;6.45;;;19.30;98.10;;;;;;5041944;28;20112;-51
2022/09/24 13:20:24;;;;;;;13.77;6.15;;;19.90;97.70;;;;;;5044041;28;20167;-51
2022/09/24 13:23:11;;;;;;;12.60;6.30;;;20.70;95.90;;;;;;5043193;28;20390;-51
2022/09/24 13:25:37;;;;;;;15.77;5.97;;;21.20;94.60;;;;;;5047126;28;20510;-54